sensor_id;sensor_type;location;lat;lon;timestamp;pressure;altitude;pressure_sealevel;temperature
69597;BMP180;56802;51.184;-115.558;2022-11-10T00:01:18;86104.40;;;-7.26
69597;BMP180;56802;51.184;-115.558;2022-11-10T00:03:48;86111.20;;;-7.40
69597;BMP180;56802;51.184;-115.558;2022-11-10T00:06:18;86118.00;;;-7.50
69597;BMP180;56802;51.184;-115.558;2022-11-10T00:08:48;86121.20;;;-7.60
69597;BMP180;56802;51.184;-115.558;2022-11-10T00:11:17;86114.40;;;-7.70
69597;BMP180;56802;51.184;-115.558;2022-11-10T00:13:48;86116.60;;;-7.80
69597;BMP180;56802;51.184;-115.558;2022-11-10T00:16:35;86124.40;;;-7.82
69597;BMP180;56802;51.184;-115.558;2022-11-10T00:19:23;86126.40;;;-7.90
69597;BMP180;56802;51.184;-115.558;2022-11-10T00:21:53;86134.60;;;-8.00
69597;BMP180;56802;51.184;-115.558;2022-11-10T00:24:23;86142.40;;;-8.02
69597;BMP180;56802;51.184;-115.558;2022-11-10T00:26:54;86144.40;;;-8.08
69597;BMP180;56802;51.184;-115.558;2022-11-10T00:29:23;86144.60;;;-8.10
69597;BMP180;56802;51.184;-115.558;2022-11-10T00:31:53;86151.00;;;-8.10
69597;BMP180;56802;51.184;-115.558;2022-11-10T00:34:22;86153.20;;;-8.10
69597;BMP180;56802;51.184;-115.558;2022-11-10T00:36:53;86156.60;;;-8.10
69597;BMP180;56802;51.184;-115.558;2022-11-10T00:39:22;86160.80;;;-8.10
69597;BMP180;56802;51.184;-115.558;2022-11-10T00:41:53;86165.00;;;-8.10
69597;BMP180;56802;51.184;-115.558;2022-11-10T00:44:22;86163.00;;;-8.20
69597;BMP180;56802;51.184;-115.558;2022-11-10T00:46:51;86166.60;;;-8.20
69597;BMP180;56802;51.184;-115.558;2022-11-10T00:49:21;86178.20;;;-8.40
69597;BMP180;56802;51.184;-115.558;2022-11-10T00:51:51;86188.00;;;-8.60
69597;BMP180;56802;51.184;-115.558;2022-11-10T00:54:20;86185.60;;;-8.70
69597;BMP180;56802;51.184;-115.558;2022-11-10T00:56:49;86192.40;;;-8.80
69597;BMP180;56802;51.184;-115.558;2022-11-10T00:59:19;86200.60;;;-8.90
69597;BMP180;56802;51.184;-115.558;2022-11-10T01:01:49;86205.20;;;-9.00
69597;BMP180;56802;51.184;-115.558;2022-11-10T01:04:18;86211.40;;;-9.10
69597;BMP180;56802;51.184;-115.558;2022-11-10T01:06:47;86212.20;;;-9.40
69597;BMP180;56802;51.184;-115.558;2022-11-10T01:09:18;86223.20;;;-9.50
69597;BMP180;56802;51.184;-115.558;2022-11-10T01:11:47;86230.00;;;-9.62
69597;BMP180;56802;51.184;-115.558;2022-11-10T01:14:17;86229.20;;;-9.80
69597;BMP180;56802;51.184;-115.558;2022-11-10T01:16:46;86224.40;;;-9.90
69597;BMP180;56802;51.184;-115.558;2022-11-10T01:19:15;86229.40;;;-10.00
69597;BMP180;56802;51.184;-115.558;2022-11-10T01:21:45;86234.80;;;-10.10
69597;BMP180;56802;51.184;-115.558;2022-11-10T01:24:20;86241.20;;;-10.10
69597;BMP180;56802;51.184;-115.558;2022-11-10T01:26:49;86237.20;;;-10.00
69597;BMP180;56802;51.184;-115.558;2022-11-10T01:29:19;86241.40;;;-10.00
69597;BMP180;56802;51.184;-115.558;2022-11-10T01:31:48;86247.40;;;-10.10
69597;BMP180;56802;51.184;-115.558;2022-11-10T01:34:18;86250.20;;;-10.10
69597;BMP180;56802;51.184;-115.558;2022-11-10T01:36:47;86256.60;;;-10.10
69597;BMP180;56802;51.184;-115.558;2022-11-10T01:39:16;86262.40;;;-10.10
69597;BMP180;56802;51.184;-115.558;2022-11-10T01:41:47;86267.80;;;-10.10
69597;BMP180;56802;51.184;-115.558;2022-11-10T01:44:23;86265.60;;;-10.06
69597;BMP180;56802;51.184;-115.558;2022-11-10T01:46:53;86272.20;;;-10.00
69597;BMP180;56802;51.184;-115.558;2022-11-10T01:49:25;86278.40;;;-10.00
69597;BMP180;56802;51.184;-115.558;2022-11-10T01:52:12;86274.60;;;-10.00
69597;BMP180;56802;51.184;-115.558;2022-11-10T01:54:48;86269.00;;;-10.00
69597;BMP180;56802;51.184;-115.558;2022-11-10T01:57:17;86271.60;;;-9.90
69597;BMP180;56802;51.184;-115.558;2022-11-10T01:59:48;86274.80;;;-9.98
69597;BMP180;56802;51.184;-115.558;2022-11-10T02:02:31;86273.40;;;-10.00
69597;BMP180;56802;51.184;-115.558;2022-11-10T02:05:04;86280.20;;;-10.10
69597;BMP180;56802;51.184;-115.558;2022-11-10T02:07:34;86284.80;;;-10.10
69597;BMP180;56802;51.184;-115.558;2022-11-10T02:10:12;86288.60;;;-10.20
69597;BMP180;56802;51.184;-115.558;2022-11-10T02:12:41;86290.20;;;-10.30
69597;BMP180;56802;51.184;-115.558;2022-11-10T02:15:14;86291.60;;;-10.40
69597;BMP180;56802;51.184;-115.558;2022-11-10T02:17:48;86298.80;;;-10.40
69597;BMP180;56802;51.184;-115.558;2022-11-10T02:20:20;86305.60;;;-10.50
69597;BMP180;56802;51.184;-115.558;2022-11-10T02:22:50;86313.00;;;-10.58
69597;BMP180;56802;51.184;-115.558;2022-11-10T02:25:24;86312.80;;;-10.60
69597;BMP180;56802;51.184;-115.558;2022-11-10T02:27:56;86314.40;;;-10.70
69597;BMP180;56802;51.184;-115.558;2022-11-10T02:30:26;86313.60;;;-10.70
69597;BMP180;56802;51.184;-115.558;2022-11-10T02:32:55;86310.00;;;-10.80
69597;BMP180;56802;51.184;-115.558;2022-11-10T02:35:24;86310.60;;;-10.80
69597;BMP180;56802;51.184;-115.558;2022-11-10T02:37:54;86315.40;;;-10.90
69597;BMP180;56802;51.184;-115.558;2022-11-10T02:40:23;86319.80;;;-10.96
69597;BMP180;56802;51.184;-115.558;2022-11-10T02:42:52;86319.00;;;-11.00
69597;BMP180;56802;51.184;-115.558;2022-11-10T02:45:21;86325.40;;;-11.06
69597;BMP180;56802;51.184;-115.558;2022-11-10T02:47:51;86336.00;;;-11.10
69597;BMP180;56802;51.184;-115.558;2022-11-10T02:50:21;86332.80;;;-11.20
69597;BMP180;56802;51.184;-115.558;2022-11-10T02:52:50;86336.60;;;-11.24
69597;BMP180;56802;51.184;-115.558;2022-11-10T02:55:19;86336.40;;;-11.36
69597;BMP180;56802;51.184;-115.558;2022-11-10T02:57:51;86336.20;;;-11.50
69597;BMP180;56802;51.184;-115.558;2022-11-10T03:00:21;86336.60;;;-11.64
69597;BMP180;56802;51.184;-115.558;2022-11-10T03:02:59;86340.00;;;-11.70
69597;BMP180;56802;51.184;-115.558;2022-11-10T03:05:32;86343.60;;;-11.80
69597;BMP180;56802;51.184;-115.558;2022-11-10T03:08:03;86337.60;;;-11.90
69597;BMP180;56802;51.184;-115.558;2022-11-10T03:10:32;86341.20;;;-12.00
69597;BMP180;56802;51.184;-115.558;2022-11-10T03:13:02;86348.40;;;-12.00
69597;BMP180;56802;51.184;-115.558;2022-11-10T03:15:32;86342.60;;;-12.10
69597;BMP180;56802;51.184;-115.558;2022-11-10T03:18:05;86348.40;;;-12.10
69597;BMP180;56802;51.184;-115.558;2022-11-10T03:20:34;86351.60;;;-12.10
69597;BMP180;56802;51.184;-115.558;2022-11-10T03:23:05;86358.80;;;-12.10
69597;BMP180;56802;51.184;-115.558;2022-11-10T03:25:34;86358.80;;;-12.26
69597;BMP180;56802;51.184;-115.558;2022-11-10T03:28:05;86354.60;;;-12.30
69597;BMP180;56802;51.184;-115.558;2022-11-10T03:30:35;86349.80;;;-12.40
69597;BMP180;56802;51.184;-115.558;2022-11-10T03:33:05;86360.00;;;-12.40
69597;BMP180;56802;51.184;-115.558;2022-11-10T03:35:35;86354.00;;;-12.48
69597;BMP180;56802;51.184;-115.558;2022-11-10T03:38:04;86361.40;;;-12.50
69597;BMP180;56802;51.184;-115.558;2022-11-10T03:40:34;86365.80;;;-12.50
69597;BMP180;56802;51.184;-115.558;2022-11-10T03:43:23;86366.60;;;-12.60
69597;BMP180;56802;51.184;-115.558;2022-11-10T03:45:54;86366.80;;;-12.70
69597;BMP180;56802;51.184;-115.558;2022-11-10T03:48:24;86367.00;;;-12.80
69597;BMP180;56802;51.184;-115.558;2022-11-10T03:50:53;86370.80;;;-12.82
69597;BMP180;56802;51.184;-115.558;2022-11-10T03:53:22;86368.20;;;-12.82
69597;BMP180;56802;51.184;-115.558;2022-11-10T03:55:52;86373.60;;;-12.88
69597;BMP180;56802;51.184;-115.558;2022-11-10T03:58:21;86374.80;;;-13.00
69597;BMP180;56802;51.184;-115.558;2022-11-10T04:00:53;86372.80;;;-13.10
69597;BMP180;56802;51.184;-115.558;2022-11-10T04:03:23;86374.80;;;-13.16
69597;BMP180;56802;51.184;-115.558;2022-11-10T04:05:53;86373.40;;;-13.30
69597;BMP180;56802;51.184;-115.558;2022-11-10T04:08:40;86371.60;;;-13.40
69597;BMP180;56802;51.184;-115.558;2022-11-10T04:11:30;86376.00;;;-13.46
69597;BMP180;56802;51.184;-115.558;2022-11-10T04:14:18;86382.00;;;-13.52
69597;BMP180;56802;51.184;-115.558;2022-11-10T04:17:05;86381.40;;;-13.62
69597;BMP180;56802;51.184;-115.558;2022-11-10T04:19:35;86385.60;;;-13.80
69597;BMP180;56802;51.184;-115.558;2022-11-10T04:22:04;86385.00;;;-13.90
69597;BMP180;56802;51.184;-115.558;2022-11-10T04:24:33;86388.00;;;-14.00
69597;BMP180;56802;51.184;-115.558;2022-11-10T04:27:03;86391.00;;;-14.04
69597;BMP180;56802;51.184;-115.558;2022-11-10T04:29:32;86399.20;;;-14.10
69597;BMP180;56802;51.184;-115.558;2022-11-10T04:32:01;86399.00;;;-14.10
69597;BMP180;56802;51.184;-115.558;2022-11-10T04:34:31;86401.60;;;-14.08
69597;BMP180;56802;51.184;-115.558;2022-11-10T04:37:00;86406.80;;;-14.10
69597;BMP180;56802;51.184;-115.558;2022-11-10T04:39:29;86403.20;;;-14.10
69597;BMP180;56802;51.184;-115.558;2022-11-10T04:41:59;86391.60;;;-14.10
69597;BMP180;56802;51.184;-115.558;2022-11-10T04:44:29;86394.60;;;-14.10
69597;BMP180;56802;51.184;-115.558;2022-11-10T04:46:59;86397.60;;;-14.20
69597;BMP180;56802;51.184;-115.558;2022-11-10T04:49:28;86394.60;;;-14.18
69597;BMP180;56802;51.184;-115.558;2022-11-10T04:51:57;86400.00;;;-14.12
69597;BMP180;56802;51.184;-115.558;2022-11-10T04:54:26;86403.00;;;-14.10
69597;BMP180;56802;51.184;-115.558;2022-11-10T04:56:56;86410.40;;;-14.00
69597;BMP180;56802;51.184;-115.558;2022-11-10T04:59:25;86406.00;;;-13.88
69597;BMP180;56802;51.184;-115.558;2022-11-10T05:01:55;86405.40;;;-13.70
69597;BMP180;56802;51.184;-115.558;2022-11-10T05:04:24;86416.20;;;-13.60
69597;BMP180;56802;51.184;-115.558;2022-11-10T05:06:54;86413.60;;;-13.50
69597;BMP180;56802;51.184;-115.558;2022-11-10T05:09:23;86419.20;;;-13.50
69597;BMP180;56802;51.184;-115.558;2022-11-10T05:11:53;86425.80;;;-13.60
69597;BMP180;56802;51.184;-115.558;2022-11-10T05:14:22;86429.20;;;-13.80
69597;BMP180;56802;51.184;-115.558;2022-11-10T05:16:52;86426.20;;;-13.90
69597;BMP180;56802;51.184;-115.558;2022-11-10T05:19:21;86424.20;;;-13.90
69597;BMP180;56802;51.184;-115.558;2022-11-10T05:21:50;86429.80;;;-13.90
69597;BMP180;56802;51.184;-115.558;2022-11-10T05:24:20;86423.00;;;-13.80
69597;BMP180;56802;51.184;-115.558;2022-11-10T05:26:49;86425.40;;;-13.70
69597;BMP180;56802;51.184;-115.558;2022-11-10T05:29:19;86433.00;;;-13.60
69597;BMP180;56802;51.184;-115.558;2022-11-10T05:31:49;86434.20;;;-13.50
69597;BMP180;56802;51.184;-115.558;2022-11-10T05:34:18;86437.20;;;-13.52
69597;BMP180;56802;51.184;-115.558;2022-11-10T05:36:48;86438.00;;;-13.60
69597;BMP180;56802;51.184;-115.558;2022-11-10T05:39:17;86435.40;;;-13.60
69597;BMP180;56802;51.184;-115.558;2022-11-10T05:41:47;86440.60;;;-13.56
69597;BMP180;56802;51.184;-115.558;2022-11-10T05:44:17;86440.40;;;-13.50
69597;BMP180;56802;51.184;-115.558;2022-11-10T05:46:46;86440.40;;;-13.46
69597;BMP180;56802;51.184;-115.558;2022-11-10T05:49:16;86438.60;;;-13.40
69597;BMP180;56802;51.184;-115.558;2022-11-10T05:51:45;86440.60;;;-13.40
69597;BMP180;56802;51.184;-115.558;2022-11-10T05:54:14;86440.60;;;-13.40
69597;BMP180;56802;51.184;-115.558;2022-11-10T05:56:43;86445.60;;;-13.40
69597;BMP180;56802;51.184;-115.558;2022-11-10T05:59:13;86446.60;;;-13.40
69597;BMP180;56802;51.184;-115.558;2022-11-10T06:01:42;86444.00;;;-13.40
69597;BMP180;56802;51.184;-115.558;2022-11-10T06:04:12;86451.60;;;-13.42
69597;BMP180;56802;51.184;-115.558;2022-11-10T06:06:41;86454.80;;;-13.60
69597;BMP180;56802;51.184;-115.558;2022-11-10T06:09:10;86448.60;;;-13.64
69597;BMP180;56802;51.184;-115.558;2022-11-10T06:11:40;86448.60;;;-13.60
69597;BMP180;56802;51.184;-115.558;2022-11-10T06:14:09;86450.40;;;-13.60
69597;BMP180;56802;51.184;-115.558;2022-11-10T06:16:39;86454.40;;;-13.56
69597;BMP180;56802;51.184;-115.558;2022-11-10T06:19:08;86455.00;;;-13.50
69597;BMP180;56802;51.184;-115.558;2022-11-10T06:21:37;86457.80;;;-13.44
69597;BMP180;56802;51.184;-115.558;2022-11-10T06:24:08;86450.40;;;-13.40
69597;BMP180;56802;51.184;-115.558;2022-11-10T06:26:38;86454.40;;;-13.40
69597;BMP180;56802;51.184;-115.558;2022-11-10T06:29:07;86449.00;;;-13.40
69597;BMP180;56802;51.184;-115.558;2022-11-10T06:31:36;86447.80;;;-13.40
69597;BMP180;56802;51.184;-115.558;2022-11-10T06:34:06;86443.80;;;-13.40
69597;BMP180;56802;51.184;-115.558;2022-11-10T06:36:36;86445.40;;;-13.30
69597;BMP180;56802;51.184;-115.558;2022-11-10T06:39:06;86448.60;;;-13.30
69597;BMP180;56802;51.184;-115.558;2022-11-10T06:41:35;86450.60;;;-13.36
69597;BMP180;56802;51.184;-115.558;2022-11-10T06:44:05;86456.20;;;-13.40
69597;BMP180;56802;51.184;-115.558;2022-11-10T06:46:34;86461.80;;;-13.40
69597;BMP180;56802;51.184;-115.558;2022-11-10T06:49:09;86468.00;;;-13.40
69597;BMP180;56802;51.184;-115.558;2022-11-10T06:51:38;86467.20;;;-13.40
69597;BMP180;56802;51.184;-115.558;2022-11-10T06:54:07;86471.80;;;-13.40
69597;BMP180;56802;51.184;-115.558;2022-11-10T06:56:37;86477.00;;;-13.40
69597;BMP180;56802;51.184;-115.558;2022-11-10T06:59:06;86481.00;;;-13.40
69597;BMP180;56802;51.184;-115.558;2022-11-10T07:01:36;86481.40;;;-13.42
69597;BMP180;56802;51.184;-115.558;2022-11-10T07:04:06;86488.00;;;-13.50
69597;BMP180;56802;51.184;-115.558;2022-11-10T07:06:50;86497.60;;;-13.50
69597;BMP180;56802;51.184;-115.558;2022-11-10T07:09:20;86493.80;;;-13.60
69597;BMP180;56802;51.184;-115.558;2022-11-10T07:11:49;86494.40;;;-13.70
69597;BMP180;56802;51.184;-115.558;2022-11-10T07:14:18;86495.20;;;-13.60
69597;BMP180;56802;51.184;-115.558;2022-11-10T07:16:48;86492.20;;;-13.62
69597;BMP180;56802;51.184;-115.558;2022-11-10T07:19:17;86492.40;;;-13.64
69597;BMP180;56802;51.184;-115.558;2022-11-10T07:21:46;86491.80;;;-13.68
69597;BMP180;56802;51.184;-115.558;2022-11-10T07:24:15;86495.40;;;-13.70
69597;BMP180;56802;51.184;-115.558;2022-11-10T07:26:44;86490.20;;;-13.80
69597;BMP180;56802;51.184;-115.558;2022-11-10T07:29:14;86489.20;;;-13.80
69597;BMP180;56802;51.184;-115.558;2022-11-10T07:31:43;86502.20;;;-13.72
69597;BMP180;56802;51.184;-115.558;2022-11-10T07:34:13;86499.60;;;-13.70
69597;BMP180;56802;51.184;-115.558;2022-11-10T07:36:43;86498.40;;;-13.64
69597;BMP180;56802;51.184;-115.558;2022-11-10T07:39:13;86506.60;;;-13.60
69597;BMP180;56802;51.184;-115.558;2022-11-10T07:41:42;86503.20;;;-13.50
69597;BMP180;56802;51.184;-115.558;2022-11-10T07:44:17;86501.40;;;-13.50
69597;BMP180;56802;51.184;-115.558;2022-11-10T07:46:47;86502.60;;;-13.42
69597;BMP180;56802;51.184;-115.558;2022-11-10T07:49:16;86498.20;;;-13.40
69597;BMP180;56802;51.184;-115.558;2022-11-10T07:51:46;86497.40;;;-13.40
69597;BMP180;56802;51.184;-115.558;2022-11-10T07:54:15;86505.40;;;-13.36
69597;BMP180;56802;51.184;-115.558;2022-11-10T07:56:45;86504.80;;;-13.30
69597;BMP180;56802;51.184;-115.558;2022-11-10T07:59:14;86503.20;;;-13.30
69597;BMP180;56802;51.184;-115.558;2022-11-10T08:01:45;86513.20;;;-13.40
69597;BMP180;56802;51.184;-115.558;2022-11-10T08:04:14;86513.40;;;-13.46
69597;BMP180;56802;51.184;-115.558;2022-11-10T08:06:43;86517.40;;;-13.50
69597;BMP180;56802;51.184;-115.558;2022-11-10T08:09:13;86517.20;;;-13.50
69597;BMP180;56802;51.184;-115.558;2022-11-10T08:11:42;86517.00;;;-13.52
69597;BMP180;56802;51.184;-115.558;2022-11-10T08:14:11;86510.20;;;-13.60
69597;BMP180;56802;51.184;-115.558;2022-11-10T08:16:41;86519.40;;;-13.70
69597;BMP180;56802;51.184;-115.558;2022-11-10T08:19:10;86519.20;;;-13.70
69597;BMP180;56802;51.184;-115.558;2022-11-10T08:21:39;86516.60;;;-13.80
69597;BMP180;56802;51.184;-115.558;2022-11-10T08:24:09;86517.00;;;-13.80
69597;BMP180;56802;51.184;-115.558;2022-11-10T08:26:39;86512.60;;;-13.90
69597;BMP180;56802;51.184;-115.558;2022-11-10T08:29:08;86511.40;;;-13.90
69597;BMP180;56802;51.184;-115.558;2022-11-10T08:31:38;86504.60;;;-13.94
69597;BMP180;56802;51.184;-115.558;2022-11-10T08:34:07;86509.00;;;-14.00
69597;BMP180;56802;51.184;-115.558;2022-11-10T08:36:37;86505.00;;;-14.00
69597;BMP180;56802;51.184;-115.558;2022-11-10T08:39:06;86513.00;;;-14.08
69597;BMP180;56802;51.184;-115.558;2022-11-10T08:41:36;86517.60;;;-14.10
69597;BMP180;56802;51.184;-115.558;2022-11-10T08:44:05;86512.60;;;-14.10
69597;BMP180;56802;51.184;-115.558;2022-11-10T08:46:38;86514.00;;;-14.12
69597;BMP180;56802;51.184;-115.558;2022-11-10T08:49:08;86514.20;;;-14.20
69597;BMP180;56802;51.184;-115.558;2022-11-10T08:51:37;86515.60;;;-14.22
69597;BMP180;56802;51.184;-115.558;2022-11-10T08:54:07;86519.40;;;-14.30
69597;BMP180;56802;51.184;-115.558;2022-11-10T08:56:36;86510.20;;;-14.40
69597;BMP180;56802;51.184;-115.558;2022-11-10T08:59:06;86511.00;;;-14.40
69597;BMP180;56802;51.184;-115.558;2022-11-10T09:01:35;86515.00;;;-14.40
69597;BMP180;56802;51.184;-115.558;2022-11-10T09:04:05;86516.80;;;-14.40
69597;BMP180;56802;51.184;-115.558;2022-11-10T09:06:34;86511.80;;;-14.40
69597;BMP180;56802;51.184;-115.558;2022-11-10T09:09:04;86515.60;;;-14.40
69597;BMP180;56802;51.184;-115.558;2022-11-10T09:11:35;86511.20;;;-14.40
69597;BMP180;56802;51.184;-115.558;2022-11-10T09:14:04;86514.60;;;-14.40
69597;BMP180;56802;51.184;-115.558;2022-11-10T09:16:33;86512.20;;;-14.40
69597;BMP180;56802;51.184;-115.558;2022-11-10T09:19:02;86504.00;;;-14.40
69597;BMP180;56802;51.184;-115.558;2022-11-10T09:21:31;86503.20;;;-14.40
69597;BMP180;56802;51.184;-115.558;2022-11-10T09:24:01;86501.60;;;-14.40
69597;BMP180;56802;51.184;-115.558;2022-11-10T09:26:31;86504.20;;;-14.38
69597;BMP180;56802;51.184;-115.558;2022-11-10T09:29:01;86501.40;;;-14.30
69597;BMP180;56802;51.184;-115.558;2022-11-10T09:31:31;86501.20;;;-14.30
69597;BMP180;56802;51.184;-115.558;2022-11-10T09:34:00;86500.00;;;-14.30
69597;BMP180;56802;51.184;-115.558;2022-11-10T09:36:30;86511.00;;;-14.30
69597;BMP180;56802;51.184;-115.558;2022-11-10T09:38:59;86506.60;;;-14.28
69597;BMP180;56802;51.184;-115.558;2022-11-10T09:41:28;86504.80;;;-14.22
69597;BMP180;56802;51.184;-115.558;2022-11-10T09:44:07;86506.80;;;-14.22
69597;BMP180;56802;51.184;-115.558;2022-11-10T09:46:45;86509.80;;;-14.28
69597;BMP180;56802;51.184;-115.558;2022-11-10T09:49:58;86509.20;;;-14.30
69597;BMP180;56802;51.184;-115.558;2022-11-10T09:52:32;86518.00;;;-14.30
69597;BMP180;56802;51.184;-115.558;2022-11-10T09:55:21;86521.20;;;-14.30
69597;BMP180;56802;51.184;-115.558;2022-11-10T09:57:56;86522.80;;;-14.28
69597;BMP180;56802;51.184;-115.558;2022-11-10T10:00:30;86525.20;;;-14.20
69597;BMP180;56802;51.184;-115.558;2022-11-10T10:03:04;86521.00;;;-14.20
69597;BMP180;56802;51.184;-115.558;2022-11-10T10:11:41;86522.40;;;-14.30
69597;BMP180;56802;51.184;-115.558;2022-11-10T10:14:45;86525.00;;;-14.40
69597;BMP180;56802;51.184;-115.558;2022-11-10T10:20:36;86524.40;;;-14.40
69597;BMP180;56802;51.184;-115.558;2022-11-10T10:23:53;86525.20;;;-14.40
69597;BMP180;56802;51.184;-115.558;2022-11-10T10:26:51;86527.00;;;-14.48
69597;BMP180;56802;51.184;-115.558;2022-11-10T10:29:47;86521.40;;;-14.44
69597;BMP180;56802;51.184;-115.558;2022-11-10T10:32:19;86531.20;;;-14.40
69597;BMP180;56802;51.184;-115.558;2022-11-10T10:34:51;86527.80;;;-14.40
69597;BMP180;56802;51.184;-115.558;2022-11-10T10:37:25;86533.40;;;-14.40
69597;BMP180;56802;51.184;-115.558;2022-11-10T10:39:55;86536.40;;;-14.40
69597;BMP180;56802;51.184;-115.558;2022-11-10T10:42:32;86538.00;;;-14.40
69597;BMP180;56802;51.184;-115.558;2022-11-10T10:45:19;86540.00;;;-14.40
69597;BMP180;56802;51.184;-115.558;2022-11-10T10:47:52;86536.00;;;-14.42
69597;BMP180;56802;51.184;-115.558;2022-11-10T10:50:30;86536.00;;;-14.40
69597;BMP180;56802;51.184;-115.558;2022-11-10T10:53:23;86543.00;;;-14.42
69597;BMP180;56802;51.184;-115.558;2022-11-10T10:56:01;86544.20;;;-14.48
69597;BMP180;56802;51.184;-115.558;2022-11-10T10:58:56;86550.80;;;-14.40
69597;BMP180;56802;51.184;-115.558;2022-11-10T11:01:37;86548.60;;;-14.50
69597;BMP180;56802;51.184;-115.558;2022-11-10T11:04:34;86553.40;;;-14.50
69597;BMP180;56802;51.184;-115.558;2022-11-10T11:07:19;86558.60;;;-14.50
69597;BMP180;56802;51.184;-115.558;2022-11-10T11:09:49;86557.20;;;-14.60
69597;BMP180;56802;51.184;-115.558;2022-11-10T11:20:14;86555.80;;;-14.68
69597;BMP180;56802;51.184;-115.558;2022-11-10T11:23:01;86553.80;;;-14.70
69597;BMP180;56802;51.184;-115.558;2022-11-10T11:25:41;86556.20;;;-14.74
69597;BMP180;56802;51.184;-115.558;2022-11-10T11:34:39;86555.60;;;-14.90
69597;BMP180;56802;51.184;-115.558;2022-11-10T11:37:34;86556.80;;;-14.90
69597;BMP180;56802;51.184;-115.558;2022-11-10T11:48:50;86560.60;;;-14.80
69597;BMP180;56802;51.184;-115.558;2022-11-10T11:51:56;86560.60;;;-14.72
69597;BMP180;56802;51.184;-115.558;2022-11-10T11:54:57;86564.20;;;-14.70
69597;BMP180;56802;51.184;-115.558;2022-11-10T12:00:25;86566.60;;;-14.68
69597;BMP180;56802;51.184;-115.558;2022-11-10T12:03:52;86568.80;;;-14.62
69597;BMP180;56802;51.184;-115.558;2022-11-10T12:15:28;86573.20;;;-14.50
69597;BMP180;56802;51.184;-115.558;2022-11-10T12:21:35;86577.80;;;-14.50
69597;BMP180;56802;51.184;-115.558;2022-11-10T12:27:39;86577.20;;;-14.50
69597;BMP180;56802;51.184;-115.558;2022-11-10T12:30:14;86579.60;;;-14.52
69597;BMP180;56802;51.184;-115.558;2022-11-10T12:33:01;86581.40;;;-14.60
69597;BMP180;56802;51.184;-115.558;2022-11-10T12:35:38;86590.60;;;-14.60
69597;BMP180;56802;51.184;-115.558;2022-11-10T12:38:13;86590.80;;;-14.60
69597;BMP180;56802;51.184;-115.558;2022-11-10T12:41:10;86586.60;;;-14.70
69597;BMP180;56802;51.184;-115.558;2022-11-10T12:46:44;86597.20;;;-14.80
69597;BMP180;56802;51.184;-115.558;2022-11-10T12:49:31;86594.60;;;-14.82
69597;BMP180;56802;51.184;-115.558;2022-11-10T12:52:39;86590.80;;;-14.90
69597;BMP180;56802;51.184;-115.558;2022-11-10T12:55:13;86595.80;;;-14.90
69597;BMP180;56802;51.184;-115.558;2022-11-10T12:57:43;86593.60;;;-14.92
69597;BMP180;56802;51.184;-115.558;2022-11-10T13:00:29;86591.40;;;-14.98
69597;BMP180;56802;51.184;-115.558;2022-11-10T13:03:00;86587.00;;;-15.00
69597;BMP180;56802;51.184;-115.558;2022-11-10T13:05:38;86594.20;;;-15.00
69597;BMP180;56802;51.184;-115.558;2022-11-10T13:13:58;86599.00;;;-15.10
69597;BMP180;56802;51.184;-115.558;2022-11-10T13:22:08;86610.00;;;-15.10
69597;BMP180;56802;51.184;-115.558;2022-11-10T13:24:41;86611.80;;;-15.00
69597;BMP180;56802;51.184;-115.558;2022-11-10T13:30:42;86618.80;;;-14.98
69597;BMP180;56802;51.184;-115.558;2022-11-10T13:33:28;86623.00;;;-15.00
69597;BMP180;56802;51.184;-115.558;2022-11-10T13:35:58;86620.80;;;-15.00
69597;BMP180;56802;51.184;-115.558;2022-11-10T13:38:40;86611.20;;;-15.00
69597;BMP180;56802;51.184;-115.558;2022-11-10T13:43:54;86612.40;;;-15.02
69597;BMP180;56802;51.184;-115.558;2022-11-10T13:46:36;86621.40;;;-15.00
69597;BMP180;56802;51.184;-115.558;2022-11-10T13:53:04;86632.40;;;-14.94
69597;BMP180;56802;51.184;-115.558;2022-11-10T13:55:57;86621.80;;;-15.00
69597;BMP180;56802;51.184;-115.558;2022-11-10T13:58:33;86621.20;;;-15.00
69597;BMP180;56802;51.184;-115.558;2022-11-10T14:01:23;86622.80;;;-14.98
69597;BMP180;56802;51.184;-115.558;2022-11-10T14:04:00;86620.20;;;-14.92
69597;BMP180;56802;51.184;-115.558;2022-11-10T14:06:47;86624.00;;;-14.92
69597;BMP180;56802;51.184;-115.558;2022-11-10T14:09:35;86628.80;;;-15.00
69597;BMP180;56802;51.184;-115.558;2022-11-10T14:13:01;86629.80;;;-15.10
69597;BMP180;56802;51.184;-115.558;2022-11-10T14:15:51;86631.80;;;-15.10
69597;BMP180;56802;51.184;-115.558;2022-11-10T14:18:25;86631.60;;;-15.10
69597;BMP180;56802;51.184;-115.558;2022-11-10T14:20:59;86634.60;;;-15.18
69597;BMP180;56802;51.184;-115.558;2022-11-10T14:26:39;86643.20;;;-15.20
69597;BMP180;56802;51.184;-115.558;2022-11-10T14:29:34;86650.80;;;-15.20
69597;BMP180;56802;51.184;-115.558;2022-11-10T14:32:19;86655.00;;;-15.22
69597;BMP180;56802;51.184;-115.558;2022-11-10T14:34:52;86650.20;;;-15.30
69597;BMP180;56802;51.184;-115.558;2022-11-10T14:37:28;86652.20;;;-15.40
69597;BMP180;56802;51.184;-115.558;2022-11-10T14:40:00;86654.20;;;-15.40
69597;BMP180;56802;51.184;-115.558;2022-11-10T14:42:32;86662.40;;;-15.40
69597;BMP180;56802;51.184;-115.558;2022-11-10T14:45:18;86662.60;;;-15.40
69597;BMP180;56802;51.184;-115.558;2022-11-10T14:47:55;86661.80;;;-15.32
69597;BMP180;56802;51.184;-115.558;2022-11-10T14:50:34;86668.80;;;-15.30
69597;BMP180;56802;51.184;-115.558;2022-11-10T14:53:27;86671.60;;;-15.30
69597;BMP180;56802;51.184;-115.558;2022-11-10T14:56:01;86671.00;;;-15.30
69597;BMP180;56802;51.184;-115.558;2022-11-10T14:58:41;86668.20;;;-15.20
69597;BMP180;56802;51.184;-115.558;2022-11-10T15:01:27;86669.40;;;-15.10
69597;BMP180;56802;51.184;-115.558;2022-11-10T15:04:10;86678.20;;;-15.20
69597;BMP180;56802;51.184;-115.558;2022-11-10T15:06:42;86680.20;;;-15.20
69597;BMP180;56802;51.184;-115.558;2022-11-10T15:09:39;86681.80;;;-15.30
69597;BMP180;56802;51.184;-115.558;2022-11-10T15:12:28;86688.20;;;-15.36
69597;BMP180;56802;51.184;-115.558;2022-11-10T15:14:59;86696.60;;;-15.30
69597;BMP180;56802;51.184;-115.558;2022-11-10T15:17:49;86699.80;;;-15.30